Time;durP1;ratioP1;P1;durP2;ratioP2;P2;SDS_P1;SDS_P2;PMS_P1;PMS_P2;Temp;Humidity;BMP_temperature;BMP_pressure;BME280_temperature;BME280_humidity;BME280_pressure;Samples;Min_cycle;Max_cycle;Signal;HPM_P1;HPM_P2
2023/02/14 00:01:45;;;;;;;66.18;34.58;;;;;;;;;;5052318;28;20024;-65
2023/02/14 00:04:12;;;;;;;76.78;37.40;;;;;;;;;;5053150;28;20554;-61
2023/02/14 00:06:39;;;;;;;73.72;36.97;;;;;;;;;;5053074;28;20025;-60
2023/02/14 00:09:06;;;;;;;74.53;37.13;;;;;;;;;;5052994;28;20098;-77
2023/02/14 00:11:32;;;;;;;65.65;34.22;;;;;;;;;;5052934;28;20025;-61
2023/02/14 00:16:43;;;;;;;60.33;32.10;;;;;;;;;;5053240;28;20480;-60
2023/02/14 00:19:11;;;;;;;61.15;31.05;;;;;;;;;;5052390;28;20500;-61
2023/02/14 00:21:38;;;;;;;61.50;30.83;;;;;;;;;;5052481;28;20033;-72
2023/02/14 00:24:05;;;;;;;59.60;31.00;;;;;;;;;;5052707;28;20447;-73
2023/02/14 00:26:31;;;;;;;59.47;29.77;;;;;;;;;;5052865;28;20389;-58
2023/02/14 00:28:57;;;;;;;61.20;32.05;;;;;;;;;;5052611;28;20388;-65
2023/02/14 00:31:23;;;;;;;59.28;30.45;;;;;;;;;;5052905;28;20025;-66
2023/02/14 00:33:49;;;;;;;59.78;31.38;;;;;;;;;;5052459;28;20457;-60
2023/02/14 00:36:17;;;;;;;60.33;30.77;;;;;;;;;;5052576;28;20107;-63
2023/02/14 00:38:43;;;;;;;63.42;31.50;;;;;;;;;;5052413;28;20043;-60
2023/02/14 00:41:09;;;;;;;60.17;31.25;;;;;;;;;;5052700;28;20036;-71
2023/02/14 00:43:35;;;;;;;58.75;30.38;;;;;;;;;;5051513;28;20461;-60
2023/02/14 00:46:01;;;;;;;62.72;31.83;;;;;;;;;;5050199;28;20408;-77
2023/02/14 00:48:27;;;;;;;64.68;31.08;;;;;;;;;;5052276;28;20515;-60
2023/02/14 00:50:53;;;;;;;62.60;31.20;;;;;;;;;;5052213;28;20033;-61
2023/02/14 00:53:19;;;;;;;61.00;31.60;;;;;;;;;;5052290;28;20033;-60
2023/02/14 00:55:45;;;;;;;59.05;29.50;;;;;;;;;;5052405;28;20103;-75
2023/02/14 00:58:12;;;;;;;61.72;30.73;;;;;;;;;;5052428;28;20025;-62
2023/02/14 01:00:38;;;;;;;56.85;31.83;;;;;;;;;;5052004;28;20040;-60
2023/02/14 01:03:04;;;;;;;63.00;31.63;;;;;;;;;;5052037;28;20025;-69
2023/02/14 01:05:30;;;;;;;66.07;33.72;;;;;;;;;;5052208;28;20171;-60
2023/02/14 01:07:56;;;;;;;59.10;30.58;;;;;;;;;;5052055;28;20036;-76
2023/02/14 01:10:22;;;;;;;65.40;32.47;;;;;;;;;;5052214;28;20029;-60
2023/02/14 01:12:48;;;;;;;58.47;31.17;;;;;;;;;;5052091;28;20056;-60
2023/02/14 01:15:14;;;;;;;61.15;29.98;;;;;;;;;;5051856;28;20141;-60
2023/02/14 01:17:40;;;;;;;58.65;31.30;;;;;;;;;;5051855;28;20045;-76
2023/02/14 01:20:06;;;;;;;59.60;29.77;;;;;;;;;;5051397;28;20053;-60
2023/02/14 01:22:36;;;;;;;58.65;30.30;;;;;;;;;;5051673;28;20507;-60
2023/02/14 01:25:02;;;;;;;60.83;31.52;;;;;;;;;;5051628;28;20534;-67
2023/02/14 01:27:28;;;;;;;61.83;31.23;;;;;;;;;;5051722;28;20037;-76
2023/02/14 01:29:54;;;;;;;55.00;29.65;;;;;;;;;;5051543;28;20032;-60
2023/02/14 01:32:20;;;;;;;58.47;30.67;;;;;;;;;;5051672;28;20049;-76
2023/02/14 01:34:46;;;;;;;56.00;29.45;;;;;;;;;;5051598;28;20033;-60
2023/02/14 01:37:13;;;;;;;55.85;28.60;;;;;;;;;;5051574;28;20025;-72
2023/02/14 01:39:39;;;;;;;59.20;29.60;;;;;;;;;;5051142;28;20091;-60
2023/02/14 01:42:05;;;;;;;58.45;29.70;;;;;;;;;;5051499;28;20119;-76
2023/02/14 01:44:31;;;;;;;54.38;28.48;;;;;;;;;;5051074;28;20051;-75
2023/02/14 01:46:58;;;;;;;51.83;27.73;;;;;;;;;;5051352;28;20468;-63
2023/02/14 01:49:26;;;;;;;50.85;27.55;;;;;;;;;;5051041;28;20036;-74
2023/02/14 01:51:55;;;;;;;55.17;29.35;;;;;;;;;;5051332;28;20071;-60
2023/02/14 01:54:23;;;;;;;53.60;28.35;;;;;;;;;;5050890;28;20085;-60
2023/02/14 01:56:51;;;;;;;52.60;27.92;;;;;;;;;;5051448;28;20420;-60
2023/02/14 01:59:19;;;;;;;53.30;27.95;;;;;;;;;;5050842;28;20476;-68
2023/02/14 02:01:46;;;;;;;52.35;28.55;;;;;;;;;;5051325;28;20362;-61
2023/02/14 02:04:15;;;;;;;50.03;27.98;;;;;;;;;;5051077;28;20075;-61
2023/02/14 02:06:49;;;;;;;51.15;27.83;;;;;;;;;;5051044;28;20065;-74
2023/02/14 02:09:18;;;;;;;56.20;29.23;;;;;;;;;;5051303;28;20029;-60
2023/02/14 02:11:45;;;;;;;54.72;28.67;;;;;;;;;;5051015;28;20083;-76
2023/02/14 02:14:15;;;;;;;51.13;28.55;;;;;;;;;;5050886;28;20108;-76
2023/02/14 02:16:46;;;;;;;56.47;28.52;;;;;;;;;;5051160;28;20032;-61
2023/02/14 02:19:22;;;;;;;59.15;28.55;;;;;;;;;;5050492;28;20779;-63
2023/02/14 02:21:48;;;;;;;56.60;28.98;;;;;;;;;;5050899;28;20025;-60
2023/02/14 02:24:27;;;;;;;50.35;28.15;;;;;;;;;;5051022;28;20035;-60
2023/02/14 02:27:11;;;;;;;53.80;28.08;;;;;;;;;;5051270;28;20029;-75
2023/02/14 02:29:52;;;;;;;50.65;26.98;;;;;;;;;;5050778;28;20488;-75
2023/02/14 02:32:24;;;;;;;53.10;28.63;;;;;;;;;;5050915;28;20037;-64
2023/02/14 02:34:56;;;;;;;56.35;28.60;;;;;;;;;;5050870;28;20029;-60
2023/02/14 02:37:22;;;;;;;56.35;29.00;;;;;;;;;;5050968;28;20029;-60
2023/02/14 02:39:51;;;;;;;55.60;29.40;;;;;;;;;;5050606;28;20033;-61
2023/02/14 02:42:21;;;;;;;52.95;28.63;;;;;;;;;;5050915;28;20026;-66
2023/02/14 02:44:47;;;;;;;52.55;27.13;;;;;;;;;;5050720;28;20044;-61
2023/02/14 02:47:22;;;;;;;50.05;26.92;;;;;;;;;;5050813;28;20114;-61
2023/02/14 02:53:02;;;;;;;46.67;26.50;;;;;;;;;;5050698;28;20519;-60
2023/02/14 02:56:44;;;;;;;49.58;26.40;;;;;;;;;;5050716;28;20431;-61
2023/02/14 02:58:21;;;;;;;55.30;28.48;;;;;;;;;;5050529;28;20032;-60
2023/02/14 03:00:48;;;;;;;49.45;26.90;;;;;;;;;;5050803;28;20068;-75
2023/02/14 03:05:59;;;;;;;53.22;27.30;;;;;;;;;;5051997;28;20090;-60
2023/02/14 03:08:25;;;;;;;54.15;27.05;;;;;;;;;;5054354;28;20017;-64
2023/02/14 03:10:52;;;;;;;51.90;28.25;;;;;;;;;;5054309;28;20055;-62
2023/02/14 03:13:40;;;;;;;48.65;26.30;;;;;;;;;;5054240;28;20024;-60
2023/02/14 03:16:19;;;;;;;45.22;25.33;;;;;;;;;;5053932;28;20370;-66
2023/02/14 03:18:50;;;;;;;50.35;25.00;;;;;;;;;;5053739;28;20053;-60
2023/02/14 03:21:19;;;;;;;48.35;25.17;;;;;;;;;;5054251;28;20106;-61
2023/02/14 03:23:56;;;;;;;49.10;24.58;;;;;;;;;;5053728;28;20027;-71
2023/02/14 03:26:27;;;;;;;44.08;24.70;;;;;;;;;;5053924;28;20055;-60
2023/02/14 03:29:12;;;;;;;44.17;24.17;;;;;;;;;;5053963;28;20036;-61
2023/02/14 03:31:41;;;;;;;43.72;23.60;;;;;;;;;;5053815;28;20024;-59
2023/02/14 03:34:14;;;;;;;46.60;24.65;;;;;;;;;;5053655;28;20029;-60
2023/02/14 03:36:46;;;;;;;45.25;24.05;;;;;;;;;;5053658;28;20036;-60
2023/02/14 03:39:15;;;;;;;43.15;24.30;;;;;;;;;;5053760;28;20041;-66
2023/02/14 03:41:48;;;;;;;47.03;24.17;;;;;;;;;;5053773;28;20116;-59
2023/02/14 03:44:17;;;;;;;46.08;23.35;;;;;;;;;;5053903;28;20108;-77
2023/02/14 03:46:49;;;;;;;40.95;23.15;;;;;;;;;;5053785;28;20024;-62
2023/02/14 03:49:18;;;;;;;43.50;21.83;;;;;;;;;;5053300;28;20390;-60
2023/02/14 03:51:46;;;;;;;42.03;21.98;;;;;;;;;;5053717;28;20020;-70
2023/02/14 03:54:13;;;;;;;38.63;21.30;;;;;;;;;;5053518;28;20025;-61
2023/02/14 03:56:49;;;;;;;37.13;20.80;;;;;;;;;;5053488;28;20024;-60
2023/02/14 03:59:19;;;;;;;35.05;19.90;;;;;;;;;;5053364;28;20064;-62
2023/02/14 04:01:48;;;;;;;43.28;21.33;;;;;;;;;;5053226;28;20112;-60
2023/02/14 04:04:16;;;;;;;39.97;20.30;;;;;;;;;;5053220;28;20033;-61
2023/02/14 04:06:42;;;;;;;39.80;20.42;;;;;;;;;;5053420;28;20021;-60
2023/02/14 04:09:08;;;;;;;38.63;19.77;;;;;;;;;;5053002;28;20057;-60
2023/02/14 04:11:34;;;;;;;35.65;19.55;;;;;;;;;;5053161;28;20029;-62
2023/02/14 04:14:01;;;;;;;35.15;20.08;;;;;;;;;;5053126;28;20021;-59
2023/02/14 04:16:27;;;;;;;35.28;20.15;;;;;;;;;;5053129;28;20035;-59
2023/02/14 04:21:38;;;;;;;36.05;19.00;;;;;;;;;;5053199;28;20099;-62
2023/02/14 04:24:04;;;;;;;36.38;17.80;;;;;;;;;;5052953;28;20473;-59
2023/02/14 04:26:30;;;;;;;32.53;18.17;;;;;;;;;;5052880;28;20636;-74
2023/02/14 04:28:56;;;;;;;33.00;17.40;;;;;;;;;;5052821;28;20028;-66
2023/02/14 04:31:22;;;;;;;29.20;16.85;;;;;;;;;;5052662;28;20032;-70
2023/02/14 04:33:50;;;;;;;32.35;17.45;;;;;;;;;;5052625;28;20028;-59
2023/02/14 04:36:16;;;;;;;29.50;16.90;;;;;;;;;;5052770;28;20032;-61
2023/02/14 04:38:42;;;;;;;30.48;16.98;;;;;;;;;;5052379;28;20025;-60
2023/02/14 04:41:08;;;;;;;30.73;16.52;;;;;;;;;;5052415;28;20465;-60
2023/02/14 04:43:34;;;;;;;32.00;16.60;;;;;;;;;;5052347;28;20128;-73
2023/02/14 04:46:00;;;;;;;31.35;16.95;;;;;;;;;;5051572;28;20100;-63
2023/02/14 04:48:26;;;;;;;29.88;16.67;;;;;;;;;;5041943;28;20025;-62
2023/02/14 04:50:52;;;;;;;28.42;16.33;;;;;;;;;;5034596;28;20037;-58
2023/02/14 04:53:18;;;;;;;28.73;16.35;;;;;;;;;;5052438;28;20029;-60
2023/02/14 04:55:45;;;;;;;30.45;17.10;;;;;;;;;;5052504;28;20099;-60
2023/02/14 04:58:11;;;;;;;34.65;17.80;;;;;;;;;;5051472;28;20078;-61
2023/02/14 05:00:37;;;;;;;35.47;19.33;;;;;;;;;;5052226;28;20033;-60
2023/02/14 05:03:03;;;;;;;33.83;18.73;;;;;;;;;;5052187;28;20464;-60
2023/02/14 05:05:29;;;;;;;34.03;17.95;;;;;;;;;;5051976;28;20384;-60
2023/02/14 05:07:55;;;;;;;31.92;17.20;;;;;;;;;;5051863;28;20055;-61
2023/02/14 05:10:21;;;;;;;29.60;15.57;;;;;;;;;;5052220;28;20453;-74
2023/02/14 05:12:47;;;;;;;30.13;15.57;;;;;;;;;;5051957;28;20519;-60
2023/02/14 05:15:13;;;;;;;31.92;17.40;;;;;;;;;;5052073;28;20055;-61
2023/02/14 05:17:39;;;;;;;29.90;15.77;;;;;;;;;;5051921;28;20485;-67
2023/02/14 05:20:05;;;;;;;28.13;15.10;;;;;;;;;;5064542;28;20495;-60
2023/02/14 05:22:31;;;;;;;25.63;14.73;;;;;;;;;;5071459;28;20025;-60
2023/02/14 05:24:57;;;;;;;29.83;15.93;;;;;;;;;;5071845;28;20024;-60
2023/02/14 05:27:23;;;;;;;28.40;15.80;;;;;;;;;;5071642;28;20024;-60
2023/02/14 05:29:49;;;;;;;27.67;15.65;;;;;;;;;;5070393;28;20039;-60
2023/02/14 05:32:15;;;;;;;31.23;16.02;;;;;;;;;;5053485;28;20468;-60
2023/02/14 05:34:41;;;;;;;26.13;15.10;;;;;;;;;;5071387;28;20041;-61
2023/02/14 05:37:07;;;;;;;27.83;15.45;;;;;;;;;;5071660;28;20032;-62
2023/02/14 05:39:33;;;;;;;32.28;15.65;;;;;;;;;;5071747;28;20051;-60
2023/02/14 05:41:59;;;;;;;32.45;17.50;;;;;;;;;;5071570;28;20547;-60
2023/02/14 05:44:25;;;;;;;28.00;16.40;;;;;;;;;;5071467;28;20036;-76
2023/02/14 05:46:53;;;;;;;28.10;15.73;;;;;;;;;;5071241;28;20031;-60
2023/02/14 05:49:19;;;;;;;28.08;15.38;;;;;;;;;;5071107;28;20479;-62
2023/02/14 05:51:45;;;;;;;31.42;16.92;;;;;;;;;;5071138;28;20020;-59
2023/02/14 05:54:11;;;;;;;29.95;16.63;;;;;;;;;;5070915;28;20107;-70
2023/02/14 05:56:37;;;;;;;30.60;15.90;;;;;;;;;;5071199;28;20384;-76
2023/02/14 05:59:03;;;;;;;30.90;16.25;;;;;;;;;;5071164;28;20025;-59
2023/02/14 06:01:29;;;;;;;26.55;14.98;;;;;;;;;;5071245;28;20078;-60
2023/02/14 06:03:55;;;;;;;30.60;15.88;;;;;;;;;;5071138;28;20046;-60
2023/02/14 06:06:21;;;;;;;26.42;15.30;;;;;;;;;;5071160;28;20028;-63
2023/02/14 06:08:47;;;;;;;30.50;16.63;;;;;;;;;;5071048;28;20468;-63
2023/02/14 06:11:13;;;;;;;30.83;16.40;;;;;;;;;;5071098;28;20404;-59
2023/02/14 06:13:40;;;;;;;29.67;15.13;;;;;;;;;;5071149;28;20085;-60
2023/02/14 06:16:06;;;;;;;26.80;15.23;;;;;;;;;;5070588;28;20733;-59
2023/02/14 06:18:32;;;;;;;29.73;16.20;;;;;;;;;;5070418;28;20025;-70
2023/02/14 06:20:58;;;;;;;33.15;17.60;;;;;;;;;;5070541;28;20047;-60
2023/02/14 06:23:24;;;;;;;30.42;17.58;;;;;;;;;;5070822;28;20025;-65
2023/02/14 06:25:50;;;;;;;29.77;15.95;;;;;;;;;;5071222;28;20114;-60
2023/02/14 06:28:16;;;;;;;29.23;15.95;;;;;;;;;;5071002;28;20071;-63
2023/02/14 06:30:42;;;;;;;26.25;15.25;;;;;;;;;;5070642;28;20028;-63
2023/02/14 06:33:08;;;;;;;28.85;15.35;;;;;;;;;;5070897;28;20036;-66
2023/02/14 06:35:34;;;;;;;28.92;16.05;;;;;;;;;;5070824;28;20032;-58
2023/02/14 06:38:01;;;;;;;32.72;16.63;;;;;;;;;;5070577;28;20025;-76
2023/02/14 06:40:27;;;;;;;28.45;15.93;;;;;;;;;;5071385;28;20050;-58
2023/02/14 06:42:53;;;;;;;30.02;16.58;;;;;;;;;;5074948;28;20131;-70
2023/02/14 06:45:19;;;;;;;31.83;16.60;;;;;;;;;;5074825;28;20062;-59
2023/02/14 06:47:45;;;;;;;29.45;16.42;;;;;;;;;;5074529;28;20024;-59
2023/02/14 06:50:11;;;;;;;31.27;16.45;;;;;;;;;;5074016;28;20033;-71
2023/02/14 06:52:37;;;;;;;28.70;17.13;;;;;;;;;;5074425;28;20036;-71
2023/02/14 06:55:03;;;;;;;29.75;15.48;;;;;;;;;;5074276;28;20464;-58
2023/02/14 06:57:29;;;;;;;31.42;16.48;;;;;;;;;;5074060;28;20033;-61
2023/02/14 06:59:56;;;;;;;28.42;16.15;;;;;;;;;;5074425;28;20043;-75
2023/02/14 07:02:21;;;;;;;29.20;15.45;;;;;;;;;;5074014;28;20031;-58
2023/02/14 07:04:48;;;;;;;29.77;16.65;;;;;;;;;;5074550;28;20028;-63
2023/02/14 07:07:14;;;;;;;30.77;16.13;;;;;;;;;;5074085;28;20103;-59
2023/02/14 07:09:40;;;;;;;27.70;15.82;;;;;;;;;;5061681;28;20150;-76
2023/02/14 07:12:06;;;;;;;30.13;16.10;;;;;;;;;;5050930;28;20049;-78
2023/02/14 07:14:32;;;;;;;29.88;16.42;;;;;;;;;;5054430;28;20036;-59
2023/02/14 07:16:58;;;;;;;29.67;16.63;;;;;;;;;;5054163;28;20074;-60
2023/02/14 07:19:24;;;;;;;29.83;17.23;;;;;;;;;;5053620;28;20055;-72
2023/02/14 07:21:50;;;;;;;28.42;15.20;;;;;;;;;;5054208;28;20357;-59
2023/02/14 07:24:16;;;;;;;32.58;15.45;;;;;;;;;;5054208;28;20361;-70
2023/02/14 07:26:42;;;;;;;28.05;15.48;;;;;;;;;;5053837;28;20025;-71
2023/02/14 07:29:08;;;;;;;28.63;15.70;;;;;;;;;;5054148;28;20152;-58
2023/02/14 07:31:34;;;;;;;30.77;16.30;;;;;;;;;;5053935;28;20021;-67
2023/02/14 07:34:00;;;;;;;31.60;15.68;;;;;;;;;;5053404;28;20021;-59
2023/02/14 07:36:26;;;;;;;28.73;14.93;;;;;;;;;;5053701;28;20389;-58
2023/02/14 07:38:52;;;;;;;31.13;16.02;;;;;;;;;;5053237;28;20024;-72
2023/02/14 07:41:19;;;;;;;28.35;15.40;;;;;;;;;;5053494;28;20036;-64
2023/02/14 07:43:45;;;;;;;31.38;16.95;;;;;;;;;;5052798;28;20090;-58
2023/02/14 07:46:11;;;;;;;28.33;15.48;;;;;;;;;;5053314;28;20060;-58
2023/02/14 07:48:38;;;;;;;28.92;15.00;;;;;;;;;;5053092;28;20555;-68
2023/02/14 07:51:04;;;;;;;26.20;15.65;;;;;;;;;;5053141;28;20384;-59
2023/02/14 07:53:30;;;;;;;30.80;16.30;;;;;;;;;;5053168;28;20025;-69
2023/02/14 07:55:56;;;;;;;29.90;16.80;;;;;;;;;;5053509;28;20029;-65
2023/02/14 07:58:22;;;;;;;29.77;16.52;;;;;;;;;;5052954;28;20270;-72
2023/02/14 08:00:49;;;;;;;28.92;16.33;;;;;;;;;;5053303;28;20119;-72
2023/02/14 08:03:16;;;;;;;35.33;17.02;;;;;;;;;;5053185;28;20013;-58
2023/02/14 08:05:42;;;;;;;30.30;15.70;;;;;;;;;;5053145;28;20025;-58
2023/02/14 08:08:08;;;;;;;27.58;15.45;;;;;;;;;;5052998;28;20376;-59
2023/02/14 08:10:34;;;;;;;33.38;17.20;;;;;;;;;;5052879;28;20033;-72
2023/02/14 08:13:00;;;;;;;32.50;18.55;;;;;;;;;;5053212;28;20055;-62
2023/02/14 08:18:16;;;;;;;31.95;16.75;;;;;;;;;;5053066;28;20086;-58
2023/02/14 08:20:43;;;;;;;31.02;17.45;;;;;;;;;;5052471;28;20053;-60
2023/02/14 08:23:09;;;;;;;29.17;17.05;;;;;;;;;;5053209;28;20420;-64
2023/02/14 08:25:35;;;;;;;29.95;18.08;;;;;;;;;;5052750;28;20081;-59
2023/02/14 08:28:02;;;;;;;33.22;18.20;;;;;;;;;;5052731;28;20461;-61
2023/02/14 08:30:28;;;;;;;29.70;16.90;;;;;;;;;;5052712;28;20040;-67
2023/02/14 08:32:54;;;;;;;33.10;17.60;;;;;;;;;;5052448;28;20464;-69
2023/02/14 08:35:20;;;;;;;31.15;16.80;;;;;;;;;;5052585;28;20037;-58
2023/02/14 08:37:46;;;;;;;28.45;16.30;;;;;;;;;;5052673;28;20036;-59
2023/02/14 08:40:12;;;;;;;33.22;17.58;;;;;;;;;;5052181;28;20045;-59
2023/02/14 08:42:38;;;;;;;31.98;16.48;;;;;;;;;;5052860;28;20024;-71
2023/02/14 08:45:05;;;;;;;29.15;17.00;;;;;;;;;;5052528;28;20024;-59
2023/02/14 08:47:34;;;;;;;29.25;16.08;;;;;;;;;;5052046;28;20033;-67
2023/02/14 08:50:01;;;;;;;28.30;16.90;;;;;;;;;;5051934;28;20049;-61
2023/02/14 08:52:27;;;;;;;28.67;16.67;;;;;;;;;;5052474;28;20047;-59
2023/02/14 08:54:53;;;;;;;29.38;17.70;;;;;;;;;;5051940;28;20472;-59
2023/02/14 08:57:19;;;;;;;33.20;18.30;;;;;;;;;;5052228;28;20455;-59
2023/02/14 08:59:45;;;;;;;33.00;17.77;;;;;;;;;;5052186;28;20084;-74
2023/02/14 09:02:17;;;;;;;27.65;15.95;;;;;;;;;;5052311;28;20032;-67
2023/02/14 09:04:44;;;;;;;34.35;16.27;;;;;;;;;;5050891;28;20456;-60
2023/02/14 09:07:13;;;;;;;27.52;16.98;;;;;;;;;;5051656;28;20036;-65
2023/02/14 09:09:39;;;;;;;32.88;18.35;;;;;;;;;;5051846;28;20593;-73
2023/02/14 09:12:06;;;;;;;34.65;18.42;;;;;;;;;;5052010;28;20025;-60
2023/02/14 09:14:35;;;;;;;33.60;18.20;;;;;;;;;;5051682;28;20017;-60
2023/02/14 09:17:04;;;;;;;34.33;17.25;;;;;;;;;;5051968;28;20032;-60
2023/02/14 09:19:31;;;;;;;31.15;17.48;;;;;;;;;;5051130;28;20408;-63
2023/02/14 09:21:57;;;;;;;34.80;18.23;;;;;;;;;;5051744;28;20059;-71
2023/02/14 09:24:23;;;;;;;34.50;18.70;;;;;;;;;;5051598;28;20025;-59
2023/02/14 09:26:49;;;;;;;40.33;19.67;;;;;;;;;;5051342;28;20055;-59
2023/02/14 09:29:15;;;;;;;38.83;18.67;;;;;;;;;;5051431;28;20095;-70
2023/02/14 09:31:41;;;;;;;42.25;20.98;;;;;;;;;;5051409;28;20024;-59
2023/02/14 09:34:07;;;;;;;48.35;22.45;;;;;;;;;;5051523;28;20029;-69
2023/02/14 09:39:18;;;;;;;35.20;18.67;;;;;;;;;;5051353;28;20047;-70
2023/02/14 09:41:56;;;;;;;38.40;19.40;;;;;;;;;;5051585;28;20387;-74
2023/02/14 09:44:28;;;;;;;33.03;18.00;;;;;;;;;;5051330;28;20154;-59
2023/02/14 09:46:56;;;;;;;38.55;18.88;;;;;;;;;;5051232;28;20021;-71
2023/02/14 09:49:28;;;;;;;37.75;18.70;;;;;;;;;;5051113;28;20029;-60
2023/02/14 09:51:54;;;;;;;25.77;14.73;;;;;;;;;;5051159;28;20020;-64
2023/02/14 09:54:23;;;;;;;29.33;17.27;;;;;;;;;;5050843;28;20068;-60
2023/02/14 09:56:52;;;;;;;32.72;17.95;;;;;;;;;;5051269;28;20473;-72
2023/02/14 09:59:34;;;;;;;34.13;18.38;;;;;;;;;;5051137;28;20083;-60
2023/02/14 10:02:14;;;;;;;31.60;17.17;;;;;;;;;;5051037;28;20032;-61
2023/02/14 10:04:53;;;;;;;33.88;18.08;;;;;;;;;;5050902;28;20035;-63
2023/02/14 10:07:27;;;;;;;37.20;18.92;;;;;;;;;;5050691;28;21182;-59
2023/02/14 10:09:53;;;;;;;41.40;19.45;;;;;;;;;;5050844;28;20059;-61
2023/02/14 10:12:22;;;;;;;37.67;20.42;;;;;;;;;;5050790;28;20060;-61
2023/02/14 10:14:49;;;;;;;35.88;18.48;;;;;;;;;;5050709;28;20159;-75
2023/02/14 10:17:19;;;;;;;34.90;18.30;;;;;;;;;;5050615;28;20024;-62
2023/02/14 10:19:55;;;;;;;36.30;17.38;;;;;;;;;;5050360;28;20484;-64
2023/02/14 10:22:24;;;;;;;33.88;19.05;;;;;;;;;;5044900;28;20030;-73
2023/02/14 10:24:52;;;;;;;30.85;18.30;;;;;;;;;;5031057;28;20072;-74
2023/02/14 10:27:41;;;;;;;31.58;17.58;;;;;;;;;;5030830;28;20021;-59
2023/02/14 10:30:17;;;;;;;38.75;19.02;;;;;;;;;;5030636;28;20595;-74
2023/02/14 10:33:04;;;;;;;37.28;18.48;;;;;;;;;;5030586;28;20515;-60
2023/02/14 10:35:30;;;;;;;36.08;18.20;;;;;;;;;;5047218;28;20025;-60
2023/02/14 10:37:56;;;;;;;34.17;20.35;;;;;;;;;;5041574;28;20026;-59
2023/02/14 10:40:22;;;;;;;35.28;19.83;;;;;;;;;;5038933;28;20038;-58
2023/02/14 10:42:48;;;;;;;31.50;17.70;;;;;;;;;;5042712;28;20041;-59
2023/02/14 10:45:17;;;;;;;33.22;18.17;;;;;;;;;;5039268;28;20100;-70
2023/02/14 10:47:58;;;;;;;34.15;19.05;;;;;;;;;;5039538;28;20082;-59
2023/02/14 10:50:27;;;;;;;32.72;18.15;;;;;;;;;;5042214;28;20044;-59
2023/02/14 10:52:58;;;;;;;33.90;19.38;;;;;;;;;;5041181;28;20039;-72
2023/02/14 10:55:39;;;;;;;29.98;18.08;;;;;;;;;;5038880;28;20032;-62
2023/02/14 10:58:06;;;;;;;33.90;18.47;;;;;;;;;;5022614;28;20468;-57
2023/02/14 11:00:34;;;;;;;33.10;19.33;;;;;;;;;;5037305;28;20076;-60
2023/02/14 11:03:05;;;;;;;30.55;18.27;;;;;;;;;;5041886;28;20052;-62
2023/02/14 11:05:31;;;;;;;35.67;20.00;;;;;;;;;;5040869;28;20491;-57
2023/02/14 11:07:58;;;;;;;40.58;19.77;;;;;;;;;;5039527;28;20022;-73
2023/02/14 11:10:26;;;;;;;33.72;18.58;;;;;;;;;;5039651;28;20035;-65
2023/02/14 11:12:55;;;;;;;37.20;20.02;;;;;;;;;;5038941;28;20468;-59
2023/02/14 11:15:23;;;;;;;25.92;14.77;;;;;;;;;;5039820;28;20465;-66
2023/02/14 11:17:50;;;;;;;33.80;17.08;;;;;;;;;;5039374;28;20064;-58
2023/02/14 11:20:19;;;;;;;26.65;14.75;;;;;;;;;;5046815;28;20538;-59
2023/02/14 11:22:45;;;;;;;26.70;15.13;;;;;;;;;;5046882;28;20468;-60
2023/02/14 11:25:19;;;;;;;28.20;15.25;;;;;;;;;;5045642;28;20037;-74
2023/02/14 11:27:48;;;;;;;25.20;14.30;;;;;;;;;;5047846;28;20021;-68
2023/02/14 11:30:26;;;;;;;29.35;16.52;;;;;;;;;;5041105;28;20044;-72
2023/02/14 11:32:56;;;;;;;28.98;16.15;;;;;;;;;;5049409;28;20128;-60
2023/02/14 11:35:25;;;;;;;30.00;16.20;;;;;;;;;;5049996;28;20037;-64
2023/02/14 11:37:52;;;;;;;30.90;16.42;;;;;;;;;;5046326;28;20404;-60
2023/02/14 11:40:29;;;;;;;27.67;15.88;;;;;;;;;;5043100;28;20064;-61
2023/02/14 11:42:58;;;;;;;31.02;16.02;;;;;;;;;;5043100;28;20029;-62
2023/02/14 11:45:34;;;;;;;27.92;13.45;;;;;;;;;;5043860;28;20029;-72
2023/02/14 11:48:11;;;;;;;27.70;15.73;;;;;;;;;;5040816;28;20425;-64
2023/02/14 11:50:38;;;;;;;29.40;15.38;;;;;;;;;;5039571;28;20041;-68
2023/02/14 11:53:04;;;;;;;26.70;15.68;;;;;;;;;;5041342;28;20082;-59
2023/02/14 11:55:33;;;;;;;26.48;15.27;;;;;;;;;;5042890;28;20017;-64
2023/02/14 11:57:59;;;;;;;29.83;15.63;;;;;;;;;;5032662;28;20040;-64
2023/02/14 12:00:26;;;;;;;29.73;16.65;;;;;;;;;;5032785;28;20128;-66
2023/02/14 12:02:52;;;;;;;28.35;15.43;;;;;;;;;;5032589;28;20026;-71
2023/02/14 12:05:44;;;;;;;28.05;15.77;;;;;;;;;;5032469;28;20047;-71
2023/02/14 12:08:10;;;;;;;31.40;15.70;;;;;;;;;;5032337;28;20424;-60
2023/02/14 12:10:37;;;;;;;24.33;12.60;;;;;;;;;;5032711;28;20419;-61
2023/02/14 12:13:21;;;;;;;29.73;16.98;;;;;;;;;;5032865;28;20030;-60
2023/02/14 12:15:53;;;;;;;26.45;15.73;;;;;;;;;;5032428;28;20053;-64
2023/02/14 12:18:19;;;;;;;21.70;11.67;;;;;;;;;;5032472;28;20430;-68
2023/02/14 12:20:55;;;;;;;28.60;16.15;;;;;;;;;;5052451;28;20313;-63
2023/02/14 12:23:37;;;;;;;30.45;17.83;;;;;;;;;;5063640;28;20016;-61
2023/02/14 12:26:06;;;;;;;34.67;17.33;;;;;;;;;;5063067;28;20609;-61
2023/02/14 12:28:38;;;;;;;33.30;18.77;;;;;;;;;;5063908;28;20070;-65
2023/02/14 12:31:04;;;;;;;;;;;;;;;;;;5069652;28;20033;-67
2023/02/14 12:33:30;;;;;;;37.03;19.52;;;;;;;;;;5070069;28;19909;-59
2023/02/14 12:36:03;;;;;;;33.58;18.00;;;;;;;;;;5065070;28;20138;-61
2023/02/14 12:38:29;;;;;;;32.35;18.33;;;;;;;;;;5051819;28;20029;-74
2023/02/14 12:41:05;;;;;;;35.33;18.70;;;;;;;;;;5067925;28;20071;-61
2023/02/14 12:43:50;;;;;;;28.90;17.75;;;;;;;;;;5064186;28;20044;-61
2023/02/14 12:46:16;;;;;;;32.00;18.30;;;;;;;;;;5072073;28;20017;-65
2023/02/14 12:48:55;;;;;;;34.67;17.77;;;;;;;;;;5070880;28;20123;-62
2023/02/14 12:51:35;;;;;;;32.50;18.17;;;;;;;;;;5070853;28;20108;-72
2023/02/14 12:54:19;;;;;;;30.65;18.45;;;;;;;;;;5065584;28;20100;-62
2023/02/14 12:56:45;;;;;;;28.15;16.73;;;;;;;;;;5060590;28;20093;-62
2023/02/14 12:59:30;;;;;;;30.48;17.80;;;;;;;;;;5051820;28;20060;-73
2023/02/14 13:02:16;;;;;;;35.22;19.50;;;;;;;;;;5051994;28;20491;-62
2023/02/14 13:04:42;;;;;;;35.17;18.30;;;;;;;;;;5050632;28;20099;-69
2023/02/14 13:07:17;;;;;;;38.63;20.05;;;;;;;;;;5051738;28;20480;-63
2023/02/14 13:10:03;;;;;;;39.90;20.13;;;;;;;;;;5051548;28;20025;-65
2023/02/14 13:12:29;;;;;;;33.60;19.00;;;;;;;;;;5044472;28;20049;-60
2023/02/14 13:15:05;;;;;;;36.47;19.17;;;;;;;;;;5051311;28;20439;-60
2023/02/14 13:17:34;;;;;;;35.53;19.02;;;;;;;;;;5051309;28;20052;-64
2023/02/14 13:20:03;;;;;;;35.97;20.17;;;;;;;;;;5051260;28;20170;-68
2023/02/14 13:22:30;;;;;;;37.90;20.90;;;;;;;;;;5051515;28;20031;-60
2023/02/14 13:24:58;;;;;;;39.80;21.75;;;;;;;;;;5051190;28;20047;-59
2023/02/14 13:27:26;;;;;;;31.98;19.50;;;;;;;;;;5050589;28;20049;-60
2023/02/14 13:29:56;;;;;;;29.50;17.88;;;;;;;;;;5051112;28;20021;-71
2023/02/14 13:32:23;;;;;;;31.73;18.73;;;;;;;;;;5032237;28;20033;-59
2023/02/14 13:34:50;;;;;;;34.05;18.73;;;;;;;;;;5050900;28;20128;-59
2023/02/14 13:37:17;;;;;;;33.53;18.25;;;;;;;;;;5050694;28;20527;-59
2023/02/14 13:39:53;;;;;;;31.60;18.50;;;;;;;;;;5050380;28;20086;-70
2023/02/14 13:42:38;;;;;;;35.80;18.98;;;;;;;;;;5051025;28;20059;-59
2023/02/14 13:45:04;;;;;;;33.33;18.83;;;;;;;;;;5050639;28;20032;-59
2023/02/14 13:47:30;;;;;;;32.75;18.65;;;;;;;;;;5050456;28;20449;-61
2023/02/14 13:49:58;;;;;;;33.38;19.38;;;;;;;;;;5050555;28;20037;-66
2023/02/14 13:52:40;;;;;;;33.92;19.88;;;;;;;;;;5050698;28;20021;-68
2023/02/14 13:55:08;;;;;;;38.38;19.58;;;;;;;;;;5050032;28;20040;-60
2023/02/14 13:57:35;;;;;;;36.47;19.55;;;;;;;;;;5050140;28;20033;-61
2023/02/14 14:00:17;;;;;;;38.47;20.48;;;;;;;;;;5050443;28;20025;-60
2023/02/14 14:02:43;;;;;;;32.05;18.40;;;;;;;;;;5050741;28;20348;-59
2023/02/14 14:05:28;;;;;;;32.22;17.52;;;;;;;;;;5050240;28;20496;-71
2023/02/14 14:08:13;;;;;;;32.22;18.83;;;;;;;;;;5064783;28;20075;-59
2023/02/14 14:10:58;;;;;;;35.15;17.80;;;;;;;;;;5070285;28;20417;-71
2023/02/14 14:13:42;;;;;;;36.33;19.80;;;;;;;;;;5070369;28;20027;-67
2023/02/14 14:16:26;;;;;;;34.88;20.48;;;;;;;;;;5070366;28;20025;-59
2023/02/14 14:19:06;;;;;;;38.35;20.00;;;;;;;;;;5073589;28;20048;-71
2023/02/14 14:21:34;;;;;;;37.10;20.20;;;;;;;;;;5090098;28;20475;-73
2023/02/14 14:24:16;;;;;;;36.53;19.23;;;;;;;;;;5090508;28;20047;-64
2023/02/14 14:26:44;;;;;;;33.55;19.80;;;;;;;;;;5090663;28;20020;-60
2023/02/14 14:29:12;;;;;;;33.55;18.52;;;;;;;;;;5090178;28;20108;-59
2023/02/14 14:31:39;;;;;;;36.97;18.42;;;;;;;;;;5090814;28;20020;-73
2023/02/14 14:34:05;;;;;;;31.17;18.27;;;;;;;;;;5090522;28;20028;-69
2023/02/14 14:36:31;;;;;;;45.65;23.65;;;;;;;;;;5090568;28;20050;-69
2023/02/14 14:38:57;;;;;;;38.13;21.20;;;;;;;;;;5090191;28;20036;-64
2023/02/14 14:41:30;;;;;;;31.85;19.05;;;;;;;;;;5090341;28;20073;-61
2023/02/14 14:43:56;;;;;;;33.03;18.58;;;;;;;;;;5090817;28;20070;-71
2023/02/14 14:46:22;;;;;;;30.75;18.73;;;;;;;;;;5090670;28;20066;-61